Flowerfield, New York
Current Conditions -  °F | °C
As of 2:56 AM on Thursday 27 Nov 2014 (Local Time) from KISP Reporting Station
Overcast Overcast  
Wind Chill: 28°   Ceiling: 7000
Heat Index: 36°   Visibility: 10mi
Dew Point: 33°   Wind: 12mph
Humidity: 89%   Direction: 330°NNW
Pressure: 29.84"   Gusts: NA
Location:  40.8903°N, 73.169°W
Report Text: KISP 270756Z AUTO 33010KT 10SM FEW010 BKN070 OVC090 02/01 A2984 RMK AO2 RAE0659B19E20UPB0659E19 SLP106 P0001 T00220006
Loading
Personal Weather Stations






























Interactive Weather Map New forecast layout! Learn more

10-Day Weather Forecast

Advertisements
Track Severe Weather on mobile